sensor_id;sensor_type;location;lat;lon;timestamp;temperature;humidity
26595;DHT22;14238;49.496;8.154;2022-09-09T00:04:16;16.00;99.90
26595;DHT22;14238;49.496;8.154;2022-09-09T00:09:45;16.70;99.90
26595;DHT22;14238;49.496;8.154;2022-09-09T00:14:58;16.90;99.90
26595;DHT22;14238;49.496;8.154;2022-09-09T00:17:39;16.90;99.90
26595;DHT22;14238;49.496;8.154;2022-09-09T00:20:30;17.00;99.90
26595;DHT22;14238;49.496;8.154;2022-09-09T00:23:14;17.00;99.90
26595;DHT22;14238;49.496;8.154;2022-09-09T00:26:14;17.00;99.90
26595;DHT22;14238;49.496;8.154;2022-09-09T00:28:41;16.90;99.90
26595;DHT22;14238;49.496;8.154;2022-09-09T00:31:13;17.00;99.90
26595;DHT22;14238;49.496;8.154;2022-09-09T00:33:39;16.90;99.90
26595;DHT22;14238;49.496;8.154;2022-09-09T00:36:13;16.90;99.90
26595;DHT22;14238;49.496;8.154;2022-09-09T00:38:50;16.80;99.90
26595;DHT22;14238;49.496;8.154;2022-09-09T00:44:09;16.60;99.90
26595;DHT22;14238;49.496;8.154;2022-09-09T00:52:14;16.30;99.90
26595;DHT22;14238;49.496;8.154;2022-09-09T00:54:59;16.30;99.90
26595;DHT22;14238;49.496;8.154;2022-09-09T00:57:30;16.40;99.90
26595;DHT22;14238;49.496;8.154;2022-09-09T01:00:19;16.40;99.90
26595;DHT22;14238;49.496;8.154;2022-09-09T01:03:15;16.50;99.90
26595;DHT22;14238;49.496;8.154;2022-09-09T01:05:57;16.50;99.90
26595;DHT22;14238;49.496;8.154;2022-09-09T01:11:36;16.40;99.90
26595;DHT22;14238;49.496;8.154;2022-09-09T01:17:07;16.50;99.90
26595;DHT22;14238;49.496;8.154;2022-09-09T01:28:14;16.70;99.90
26595;DHT22;14238;49.496;8.154;2022-09-09T01:30:41;16.70;99.90
26595;DHT22;14238;49.496;8.154;2022-09-09T01:33:12;16.70;99.90
26595;DHT22;14238;49.496;8.154;2022-09-09T01:35:59;16.70;99.90
26595;DHT22;14238;49.496;8.154;2022-09-09T01:38:28;16.70;99.90
26595;DHT22;14238;49.496;8.154;2022-09-09T01:40:55;16.70;99.90
26595;DHT22;14238;49.496;8.154;2022-09-09T01:43:21;16.70;99.90
26595;DHT22;14238;49.496;8.154;2022-09-09T01:45:49;16.60;99.90
26595;DHT22;14238;49.496;8.154;2022-09-09T01:48:17;16.60;99.90
26595;DHT22;14238;49.496;8.154;2022-09-09T01:50:43;16.50;99.90
26595;DHT22;14238;49.496;8.154;2022-09-09T01:53:09;16.50;99.90
26595;DHT22;14238;49.496;8.154;2022-09-09T01:55:43;16.50;99.90
26595;DHT22;14238;49.496;8.154;2022-09-09T01:58:26;16.60;99.90
26595;DHT22;14238;49.496;8.154;2022-09-09T02:01:21;16.70;99.90
26595;DHT22;14238;49.496;8.154;2022-09-09T02:03:53;16.60;99.90
26595;DHT22;14238;49.496;8.154;2022-09-09T02:06:38;16.60;99.90
26595;DHT22;14238;49.496;8.154;2022-09-09T02:09:10;16.60;99.90
26595;DHT22;14238;49.496;8.154;2022-09-09T02:11:37;16.60;99.90
26595;DHT22;14238;49.496;8.154;2022-09-09T02:14:10;16.60;99.90
26595;DHT22;14238;49.496;8.154;2022-09-09T02:17:05;16.60;99.90
26595;DHT22;14238;49.496;8.154;2022-09-09T02:19:32;16.60;99.90
26595;DHT22;14238;49.496;8.154;2022-09-09T02:22:00;16.50;99.90
26595;DHT22;14238;49.496;8.154;2022-09-09T02:24:32;16.40;99.90
26595;DHT22;14238;49.496;8.154;2022-09-09T02:26:59;16.50;99.90
26595;DHT22;14238;49.496;8.154;2022-09-09T02:29:33;16.50;99.90
26595;DHT22;14238;49.496;8.154;2022-09-09T02:32:02;16.50;99.90
26595;DHT22;14238;49.496;8.154;2022-09-09T02:34:31;16.40;99.90
26595;DHT22;14238;49.496;8.154;2022-09-09T02:36:59;16.30;99.90
26595;DHT22;14238;49.496;8.154;2022-09-09T02:39:26;16.30;99.90
26595;DHT22;14238;49.496;8.154;2022-09-09T02:41:52;16.40;99.90
26595;DHT22;14238;49.496;8.154;2022-09-09T02:44:18;16.40;99.90
26595;DHT22;14238;49.496;8.154;2022-09-09T02:49:40;16.30;99.90
26595;DHT22;14238;49.496;8.154;2022-09-09T02:52:14;16.30;99.90
26595;DHT22;14238;49.496;8.154;2022-09-09T02:54:43;16.30;99.90
26595;DHT22;14238;49.496;8.154;2022-09-09T02:57:22;16.20;99.90
26595;DHT22;14238;49.496;8.154;2022-09-09T02:59:48;16.20;99.90
26595;DHT22;14238;49.496;8.154;2022-09-09T03:02:15;16.10;99.90
26595;DHT22;14238;49.496;8.154;2022-09-09T03:04:41;16.00;99.90
26595;DHT22;14238;49.496;8.154;2022-09-09T03:07:10;16.00;99.90
26595;DHT22;14238;49.496;8.154;2022-09-09T03:09:35;16.00;99.90
26595;DHT22;14238;49.496;8.154;2022-09-09T03:12:01;16.10;99.90
26595;DHT22;14238;49.496;8.154;2022-09-09T03:14:29;16.10;99.90
26595;DHT22;14238;49.496;8.154;2022-09-09T03:16:55;16.00;99.90
26595;DHT22;14238;49.496;8.154;2022-09-09T03:19:23;16.00;99.90
26595;DHT22;14238;49.496;8.154;2022-09-09T03:21:48;15.90;99.90
26595;DHT22;14238;49.496;8.154;2022-09-09T03:24:15;15.90;99.90
26595;DHT22;14238;49.496;8.154;2022-09-09T03:26:41;15.80;99.90
26595;DHT22;14238;49.496;8.154;2022-09-09T03:29:10;15.70;99.90
26595;DHT22;14238;49.496;8.154;2022-09-09T03:31:38;15.80;99.90
26595;DHT22;14238;49.496;8.154;2022-09-09T03:34:04;15.90;99.90
26595;DHT22;14238;49.496;8.154;2022-09-09T03:36:29;15.90;99.90
26595;DHT22;14238;49.496;8.154;2022-09-09T03:38:55;15.90;99.90
26595;DHT22;14238;49.496;8.154;2022-09-09T03:41:24;15.90;99.90
26595;DHT22;14238;49.496;8.154;2022-09-09T03:43:53;15.90;99.90
26595;DHT22;14238;49.496;8.154;2022-09-09T03:46:20;15.90;99.90
26595;DHT22;14238;49.496;8.154;2022-09-09T03:48:46;16.00;99.90
26595;DHT22;14238;49.496;8.154;2022-09-09T03:51:12;15.90;99.90
26595;DHT22;14238;49.496;8.154;2022-09-09T03:53:38;15.90;99.90
26595;DHT22;14238;49.496;8.154;2022-09-09T03:56:04;16.00;99.90
26595;DHT22;14238;49.496;8.154;2022-09-09T03:58:35;16.00;99.90
26595;DHT22;14238;49.496;8.154;2022-09-09T04:01:10;16.00;99.90
26595;DHT22;14238;49.496;8.154;2022-09-09T04:03:36;16.00;99.90
26595;DHT22;14238;49.496;8.154;2022-09-09T04:06:03;16.00;99.90
26595;DHT22;14238;49.496;8.154;2022-09-09T04:08:30;16.10;99.90
26595;DHT22;14238;49.496;8.154;2022-09-09T04:10:57;16.10;99.90
26595;DHT22;14238;49.496;8.154;2022-09-09T04:13:24;16.10;99.90
26595;DHT22;14238;49.496;8.154;2022-09-09T04:15:52;16.10;99.90
26595;DHT22;14238;49.496;8.154;2022-09-09T04:18:18;16.10;99.90
26595;DHT22;14238;49.496;8.154;2022-09-09T04:20:49;16.20;99.90
26595;DHT22;14238;49.496;8.154;2022-09-09T04:23:15;16.20;99.90
26595;DHT22;14238;49.496;8.154;2022-09-09T04:25:48;16.20;99.90
26595;DHT22;14238;49.496;8.154;2022-09-09T04:28:15;16.20;99.90
26595;DHT22;14238;49.496;8.154;2022-09-09T04:30:41;16.20;99.90
26595;DHT22;14238;49.496;8.154;2022-09-09T04:33:08;16.20;99.90
26595;DHT22;14238;49.496;8.154;2022-09-09T04:35:34;16.20;99.90
26595;DHT22;14238;49.496;8.154;2022-09-09T04:38:00;16.20;99.90
26595;DHT22;14238;49.496;8.154;2022-09-09T04:40:28;16.20;99.90
26595;DHT22;14238;49.496;8.154;2022-09-09T04:42:55;16.20;99.90
26595;DHT22;14238;49.496;8.154;2022-09-09T04:45:20;16.10;99.90
26595;DHT22;14238;49.496;8.154;2022-09-09T04:47:46;16.10;99.90
26595;DHT22;14238;49.496;8.154;2022-09-09T04:50:11;16.00;99.90
26595;DHT22;14238;49.496;8.154;2022-09-09T04:52:37;16.10;99.90
26595;DHT22;14238;49.496;8.154;2022-09-09T04:55:03;16.00;99.90
26595;DHT22;14238;49.496;8.154;2022-09-09T04:57:29;15.90;99.90
26595;DHT22;14238;49.496;8.154;2022-09-09T04:59:57;15.90;99.90
26595;DHT22;14238;49.496;8.154;2022-09-09T05:02:23;15.90;99.90
26595;DHT22;14238;49.496;8.154;2022-09-09T05:04:48;15.80;99.90
26595;DHT22;14238;49.496;8.154;2022-09-09T05:07:15;15.80;99.90
26595;DHT22;14238;49.496;8.154;2022-09-09T05:09:40;15.80;99.90
26595;DHT22;14238;49.496;8.154;2022-09-09T05:12:06;15.80;99.90
26595;DHT22;14238;49.496;8.154;2022-09-09T05:14:32;15.80;99.90
26595;DHT22;14238;49.496;8.154;2022-09-09T05:16:57;15.70;99.90
26595;DHT22;14238;49.496;8.154;2022-09-09T05:19:23;15.70;99.90
26595;DHT22;14238;49.496;8.154;2022-09-09T05:21:49;15.70;99.90
26595;DHT22;14238;49.496;8.154;2022-09-09T05:24:15;15.70;99.90
26595;DHT22;14238;49.496;8.154;2022-09-09T05:26:42;15.70;99.90
26595;DHT22;14238;49.496;8.154;2022-09-09T05:29:08;15.70;99.90
26595;DHT22;14238;49.496;8.154;2022-09-09T05:31:34;15.60;99.90
26595;DHT22;14238;49.496;8.154;2022-09-09T05:34:00;15.60;99.90
26595;DHT22;14238;49.496;8.154;2022-09-09T05:36:25;15.60;99.90
26595;DHT22;14238;49.496;8.154;2022-09-09T05:38:51;15.60;99.90
26595;DHT22;14238;49.496;8.154;2022-09-09T05:41:19;15.60;99.90
26595;DHT22;14238;49.496;8.154;2022-09-09T05:43:45;15.60;99.90
26595;DHT22;14238;49.496;8.154;2022-09-09T05:46:17;15.60;99.90
26595;DHT22;14238;49.496;8.154;2022-09-09T05:48:44;15.60;99.90
26595;DHT22;14238;49.496;8.154;2022-09-09T05:51:15;15.70;99.90
26595;DHT22;14238;49.496;8.154;2022-09-09T05:56:16;15.80;99.90
26595;DHT22;14238;49.496;8.154;2022-09-09T05:58:46;16.00;99.90
26595;DHT22;14238;49.496;8.154;2022-09-09T06:01:17;16.10;99.90
26595;DHT22;14238;49.496;8.154;2022-09-09T06:03:44;16.10;99.90
26595;DHT22;14238;49.496;8.154;2022-09-09T06:06:12;16.20;99.90
26595;DHT22;14238;49.496;8.154;2022-09-09T06:08:40;16.30;99.90
26595;DHT22;14238;49.496;8.154;2022-09-09T06:11:10;16.40;99.90
26595;DHT22;14238;49.496;8.154;2022-09-09T06:13:36;16.60;99.90
26595;DHT22;14238;49.496;8.154;2022-09-09T06:16:16;16.70;99.90
26595;DHT22;14238;49.496;8.154;2022-09-09T06:18:42;16.90;99.90
26595;DHT22;14238;49.496;8.154;2022-09-09T06:21:27;17.00;99.90
26595;DHT22;14238;49.496;8.154;2022-09-09T06:23:53;17.00;99.90
26595;DHT22;14238;49.496;8.154;2022-09-09T06:26:21;17.10;99.90
26595;DHT22;14238;49.496;8.154;2022-09-09T06:28:49;17.20;99.90
26595;DHT22;14238;49.496;8.154;2022-09-09T06:31:22;17.30;99.90
26595;DHT22;14238;49.496;8.154;2022-09-09T06:33:49;17.40;99.90
26595;DHT22;14238;49.496;8.154;2022-09-09T06:36:36;17.40;99.90
26595;DHT22;14238;49.496;8.154;2022-09-09T06:39:03;17.40;99.90
26595;DHT22;14238;49.496;8.154;2022-09-09T06:41:31;17.20;99.90
26595;DHT22;14238;49.496;8.154;2022-09-09T06:43:58;17.20;99.90
26595;DHT22;14238;49.496;8.154;2022-09-09T06:46:26;17.20;99.90
26595;DHT22;14238;49.496;8.154;2022-09-09T06:48:56;17.20;99.90
26595;DHT22;14238;49.496;8.154;2022-09-09T06:51:23;17.20;99.90
26595;DHT22;14238;49.496;8.154;2022-09-09T06:54:00;17.30;99.90
26595;DHT22;14238;49.496;8.154;2022-09-09T06:56:34;17.40;99.90
26595;DHT22;14238;49.496;8.154;2022-09-09T06:59:02;17.50;99.90
26595;DHT22;14238;49.496;8.154;2022-09-09T07:01:30;17.60;99.90
26595;DHT22;14238;49.496;8.154;2022-09-09T07:03:58;17.60;99.90
26595;DHT22;14238;49.496;8.154;2022-09-09T07:06:32;17.60;99.90
26595;DHT22;14238;49.496;8.154;2022-09-09T07:08:59;17.50;99.90
26595;DHT22;14238;49.496;8.154;2022-09-09T07:11:28;17.50;99.90
26595;DHT22;14238;49.496;8.154;2022-09-09T07:13:54;17.40;99.90
26595;DHT22;14238;49.496;8.154;2022-09-09T07:16:21;17.40;99.90
26595;DHT22;14238;49.496;8.154;2022-09-09T07:18:48;17.30;99.90
26595;DHT22;14238;49.496;8.154;2022-09-09T07:21:16;17.40;99.90
26595;DHT22;14238;49.496;8.154;2022-09-09T07:23:41;17.60;99.90
26595;DHT22;14238;49.496;8.154;2022-09-09T07:26:09;17.80;99.90
26595;DHT22;14238;49.496;8.154;2022-09-09T07:28:36;17.80;99.90
26595;DHT22;14238;49.496;8.154;2022-09-09T07:31:02;17.70;99.90
26595;DHT22;14238;49.496;8.154;2022-09-09T07:33:28;17.80;99.90
26595;DHT22;14238;49.496;8.154;2022-09-09T07:36:07;18.00;99.90
26595;DHT22;14238;49.496;8.154;2022-09-09T07:38:45;17.90;99.90
26595;DHT22;14238;49.496;8.154;2022-09-09T07:41:33;17.90;99.90
26595;DHT22;14238;49.496;8.154;2022-09-09T07:43:59;17.90;99.90
26595;DHT22;14238;49.496;8.154;2022-09-09T07:46:26;17.90;99.90
26595;DHT22;14238;49.496;8.154;2022-09-09T07:48:56;17.80;99.90
26595;DHT22;14238;49.496;8.154;2022-09-09T07:51:29;17.80;99.90
26595;DHT22;14238;49.496;8.154;2022-09-09T07:53:58;17.90;99.90
26595;DHT22;14238;49.496;8.154;2022-09-09T07:56:26;17.90;99.90
26595;DHT22;14238;49.496;8.154;2022-09-09T07:58:53;18.10;99.90
26595;DHT22;14238;49.496;8.154;2022-09-09T08:01:31;18.20;99.90
26595;DHT22;14238;49.496;8.154;2022-09-09T08:04:02;18.20;99.90
26595;DHT22;14238;49.496;8.154;2022-09-09T08:06:31;18.00;99.90
26595;DHT22;14238;49.496;8.154;2022-09-09T08:08:58;17.90;99.90
26595;DHT22;14238;49.496;8.154;2022-09-09T08:11:26;17.90;99.90
26595;DHT22;14238;49.496;8.154;2022-09-09T08:13:52;17.90;99.90
26595;DHT22;14238;49.496;8.154;2022-09-09T08:16:20;17.80;99.90
26595;DHT22;14238;49.496;8.154;2022-09-09T08:18:52;17.80;99.90
26595;DHT22;14238;49.496;8.154;2022-09-09T08:21:21;17.90;99.90
26595;DHT22;14238;49.496;8.154;2022-09-09T08:23:50;18.10;99.90
26595;DHT22;14238;49.496;8.154;2022-09-09T08:26:19;18.40;99.90
26595;DHT22;14238;49.496;8.154;2022-09-09T08:28:53;18.50;99.90
26595;DHT22;14238;49.496;8.154;2022-09-09T08:31:21;19.10;99.90
26595;DHT22;14238;49.496;8.154;2022-09-09T08:33:48;18.90;99.90
26595;DHT22;14238;49.496;8.154;2022-09-09T08:36:16;18.80;99.90
26595;DHT22;14238;49.496;8.154;2022-09-09T08:41:19;19.90;99.90
26595;DHT22;14238;49.496;8.154;2022-09-09T08:43:50;19.50;99.90
26595;DHT22;14238;49.496;8.154;2022-09-09T08:51:20;18.60;99.90
26595;DHT22;14238;49.496;8.154;2022-09-09T08:53:49;18.30;99.90
26595;DHT22;14238;49.496;8.154;2022-09-09T08:56:20;18.10;99.90
26595;DHT22;14238;49.496;8.154;2022-09-09T08:58:52;18.00;99.90
26595;DHT22;14238;49.496;8.154;2022-09-09T09:07:23;19.00;99.90
26595;DHT22;14238;49.496;8.154;2022-09-09T09:10:11;20.00;99.90
26595;DHT22;14238;49.496;8.154;2022-09-09T09:12:42;20.70;99.90
26595;DHT22;14238;49.496;8.154;2022-09-09T09:15:16;21.40;99.90
26595;DHT22;14238;49.496;8.154;2022-09-09T09:17:43;21.00;99.90
26595;DHT22;14238;49.496;8.154;2022-09-09T09:20:16;20.20;99.90
26595;DHT22;14238;49.496;8.154;2022-09-09T09:22:49;19.40;99.90
26595;DHT22;14238;49.496;8.154;2022-09-09T09:25:20;19.70;99.90
26595;DHT22;14238;49.496;8.154;2022-09-09T09:27:59;19.60;99.90
26595;DHT22;14238;49.496;8.154;2022-09-09T09:30:44;20.30;99.90
26595;DHT22;14238;49.496;8.154;2022-09-09T09:33:52;20.30;99.90
26595;DHT22;14238;49.496;8.154;2022-09-09T09:36:12;20.00;99.90
26595;DHT22;14238;49.496;8.154;2022-09-09T09:38:58;20.30;99.90
26595;DHT22;14238;49.496;8.154;2022-09-09T09:41:37;21.00;99.90
26595;DHT22;14238;49.496;8.154;2022-09-09T09:44:04;21.40;99.90
26595;DHT22;14238;49.496;8.154;2022-09-09T09:46:32;21.00;99.90
26595;DHT22;14238;49.496;8.154;2022-09-09T09:49:02;20.50;99.90
26595;DHT22;14238;49.496;8.154;2022-09-09T09:51:30;20.80;99.90
26595;DHT22;14238;49.496;8.154;2022-09-09T09:56:39;22.20;99.90
26595;DHT22;14238;49.496;8.154;2022-09-09T09:59:05;22.90;99.90
26595;DHT22;14238;49.496;8.154;2022-09-09T10:01:32;23.70;99.90
26595;DHT22;14238;49.496;8.154;2022-09-09T10:04:01;23.60;99.90
26595;DHT22;14238;49.496;8.154;2022-09-09T10:06:35;23.80;99.90
26595;DHT22;14238;49.496;8.154;2022-09-09T10:09:04;23.90;99.90
26595;DHT22;14238;49.496;8.154;2022-09-09T10:11:44;23.50;99.90
26595;DHT22;14238;49.496;8.154;2022-09-09T10:14:20;23.50;99.90
26595;DHT22;14238;49.496;8.154;2022-09-09T10:17:04;23.60;99.90
26595;DHT22;14238;49.496;8.154;2022-09-09T10:19:36;24.10;99.90
26595;DHT22;14238;49.496;8.154;2022-09-09T10:22:27;25.20;99.90
26595;DHT22;14238;49.496;8.154;2022-09-09T10:30:18;23.60;99.90
26595;DHT22;14238;49.496;8.154;2022-09-09T10:33:08;22.10;99.90
26595;DHT22;14238;49.496;8.154;2022-09-09T10:35:49;21.60;99.90
26595;DHT22;14238;49.496;8.154;2022-09-09T10:49:59;20.70;99.90
26595;DHT22;14238;49.496;8.154;2022-09-09T10:52:32;20.70;99.90
26595;DHT22;14238;49.496;8.154;2022-09-09T10:55:19;20.80;99.90
26595;DHT22;14238;49.496;8.154;2022-09-09T10:57:50;21.40;99.90
26595;DHT22;14238;49.496;8.154;2022-09-09T11:01:12;21.70;99.90
26595;DHT22;14238;49.496;8.154;2022-09-09T11:03:24;21.80;99.90
26595;DHT22;14238;49.496;8.154;2022-09-09T11:06:06;21.40;99.90
26595;DHT22;14238;49.496;8.154;2022-09-09T11:08:38;21.40;99.90
26595;DHT22;14238;49.496;8.154;2022-09-09T11:13:52;20.70;99.90
26595;DHT22;14238;49.496;8.154;2022-09-09T11:16:48;20.60;99.90
26595;DHT22;14238;49.496;8.154;2022-09-09T11:21:53;19.80;99.90
26595;DHT22;14238;49.496;8.154;2022-09-09T11:24:28;19.70;99.90
26595;DHT22;14238;49.496;8.154;2022-09-09T11:27:15;19.50;99.90
26595;DHT22;14238;49.496;8.154;2022-09-09T11:30:02;19.60;99.90
26595;DHT22;14238;49.496;8.154;2022-09-09T11:35:52;19.70;99.90
26595;DHT22;14238;49.496;8.154;2022-09-09T11:38:28;19.70;99.90
26595;DHT22;14238;49.496;8.154;2022-09-09T11:40:59;19.70;99.90
26595;DHT22;14238;49.496;8.154;2022-09-09T11:43:30;19.50;99.90
26595;DHT22;14238;49.496;8.154;2022-09-09T11:45:59;19.50;99.90
26595;DHT22;14238;49.496;8.154;2022-09-09T11:48:38;19.50;99.90
26595;DHT22;14238;49.496;8.154;2022-09-09T11:53:51;18.90;99.90
26595;DHT22;14238;49.496;8.154;2022-09-09T11:56:44;18.80;99.90
26595;DHT22;14238;49.496;8.154;2022-09-09T11:59:25;19.00;99.90
26595;DHT22;14238;49.496;8.154;2022-09-09T12:02:02;19.20;99.90
26595;DHT22;14238;49.496;8.154;2022-09-09T12:04:38;20.30;99.90
26595;DHT22;14238;49.496;8.154;2022-09-09T12:09:44;23.00;99.90
26595;DHT22;14238;49.496;8.154;2022-09-09T12:14:56;23.40;99.90
26595;DHT22;14238;49.496;8.154;2022-09-09T12:17:24;23.80;99.90
26595;DHT22;14238;49.496;8.154;2022-09-09T12:20:08;23.50;99.90
26595;DHT22;14238;49.496;8.154;2022-09-09T12:23:10;24.10;99.90
26595;DHT22;14238;49.496;8.154;2022-09-09T12:25:56;24.50;99.90
26595;DHT22;14238;49.496;8.154;2022-09-09T12:28:47;25.00;99.90
26595;DHT22;14238;49.496;8.154;2022-09-09T12:34:16;22.30;99.90
26595;DHT22;14238;49.496;8.154;2022-09-09T12:36:44;22.30;99.90
26595;DHT22;14238;49.496;8.154;2022-09-09T12:39:32;23.40;99.90
26595;DHT22;14238;49.496;8.154;2022-09-09T12:41:59;23.80;99.90
26595;DHT22;14238;49.496;8.154;2022-09-09T12:44:25;24.80;99.90
26595;DHT22;14238;49.496;8.154;2022-09-09T12:46:54;25.20;99.90
26595;DHT22;14238;49.496;8.154;2022-09-09T12:49:35;24.20;99.90
26595;DHT22;14238;49.496;8.154;2022-09-09T12:52:15;22.90;99.90
26595;DHT22;14238;49.496;8.154;2022-09-09T12:54:44;21.30;99.90
26595;DHT22;14238;49.496;8.154;2022-09-09T12:57:16;20.30;99.90
26595;DHT22;14238;49.496;8.154;2022-09-09T12:59:43;20.40;99.90
26595;DHT22;14238;49.496;8.154;2022-09-09T13:02:20;20.90;99.90
26595;DHT22;14238;49.496;8.154;2022-09-09T13:04:45;21.60;99.90
26595;DHT22;14238;49.496;8.154;2022-09-09T13:07:12;22.60;99.90
26595;DHT22;14238;49.496;8.154;2022-09-09T13:09:39;23.30;99.90
26595;DHT22;14238;49.496;8.154;2022-09-09T13:12:07;24.10;99.90
26595;DHT22;14238;49.496;8.154;2022-09-09T13:14:37;24.90;99.90
26595;DHT22;14238;49.496;8.154;2022-09-09T13:17:05;23.80;99.90
26595;DHT22;14238;49.496;8.154;2022-09-09T13:19:37;24.50;99.90
26595;DHT22;14238;49.496;8.154;2022-09-09T13:22:14;24.70;99.90
26595;DHT22;14238;49.496;8.154;2022-09-09T13:24:40;25.40;99.90
26595;DHT22;14238;49.496;8.154;2022-09-09T13:27:26;25.70;99.90
26595;DHT22;14238;49.496;8.154;2022-09-09T13:29:54;25.00;99.30
26595;DHT22;14238;49.496;8.154;2022-09-09T13:32:24;25.20;98.90
26595;DHT22;14238;49.496;8.154;2022-09-09T13:34:51;24.70;99.10
26595;DHT22;14238;49.496;8.154;2022-09-09T13:39:53;24.90;98.80
26595;DHT22;14238;49.496;8.154;2022-09-09T13:42:28;23.80;99.50
26595;DHT22;14238;49.496;8.154;2022-09-09T13:44:55;22.90;99.90
26595;DHT22;14238;49.496;8.154;2022-09-09T13:47:30;22.30;99.90
26595;DHT22;14238;49.496;8.154;2022-09-09T13:49:57;21.90;99.90
26595;DHT22;14238;49.496;8.154;2022-09-09T13:52:30;22.20;99.90
26595;DHT22;14238;49.496;8.154;2022-09-09T13:54:56;22.40;99.90
26595;DHT22;14238;49.496;8.154;2022-09-09T13:57:24;23.60;99.90
26595;DHT22;14238;49.496;8.154;2022-09-09T13:59:51;24.50;99.90
26595;DHT22;14238;49.496;8.154;2022-09-09T14:02:17;24.70;99.50
26595;DHT22;14238;49.496;8.154;2022-09-09T14:04:43;24.80;98.00
26595;DHT22;14238;49.496;8.154;2022-09-09T14:07:15;24.80;97.50
26595;DHT22;14238;49.496;8.154;2022-09-09T14:09:41;24.10;98.60
26595;DHT22;14238;49.496;8.154;2022-09-09T14:12:13;23.30;99.00
26595;DHT22;14238;49.496;8.154;2022-09-09T14:14:40;23.00;99.90
26595;DHT22;14238;49.496;8.154;2022-09-09T14:17:07;22.50;99.90
26595;DHT22;14238;49.496;8.154;2022-09-09T14:19:33;22.10;99.90
26595;DHT22;14238;49.496;8.154;2022-09-09T14:21:59;21.80;99.90
26595;DHT22;14238;49.496;8.154;2022-09-09T14:24:25;21.70;99.90
26595;DHT22;14238;49.496;8.154;2022-09-09T14:26:50;21.60;99.90
26595;DHT22;14238;49.496;8.154;2022-09-09T14:29:16;21.50;99.90
26595;DHT22;14238;49.496;8.154;2022-09-09T14:31:42;21.30;99.90
26595;DHT22;14238;49.496;8.154;2022-09-09T14:34:07;21.10;99.90
26595;DHT22;14238;49.496;8.154;2022-09-09T14:36:33;20.80;99.90
26595;DHT22;14238;49.496;8.154;2022-09-09T14:38:58;20.80;99.90
26595;DHT22;14238;49.496;8.154;2022-09-09T14:41:24;20.80;99.90
26595;DHT22;14238;49.496;8.154;2022-09-09T14:43:50;20.80;99.90
26595;DHT22;14238;49.496;8.154;2022-09-09T14:46:19;20.90;99.90
26595;DHT22;14238;49.496;8.154;2022-09-09T14:48:44;20.70;99.90
26595;DHT22;14238;49.496;8.154;2022-09-09T14:51:15;20.50;99.90
26595;DHT22;14238;49.496;8.154;2022-09-09T14:53:42;20.30;99.90
26595;DHT22;14238;49.496;8.154;2022-09-09T14:56:11;20.10;99.90
26595;DHT22;14238;49.496;8.154;2022-09-09T14:58:37;20.10;99.90
26595;DHT22;14238;49.496;8.154;2022-09-09T15:01:22;20.10;99.90
26595;DHT22;14238;49.496;8.154;2022-09-09T15:03:50;20.00;99.90
26595;DHT22;14238;49.496;8.154;2022-09-09T15:06:16;19.80;99.90
26595;DHT22;14238;49.496;8.154;2022-09-09T15:08:44;19.80;99.90
26595;DHT22;14238;49.496;8.154;2022-09-09T15:11:11;19.70;99.90
26595;DHT22;14238;49.496;8.154;2022-09-09T15:13:38;19.40;99.90
26595;DHT22;14238;49.496;8.154;2022-09-09T15:18:34;19.10;99.90
26595;DHT22;14238;49.496;8.154;2022-09-09T15:21:02;19.10;99.90
26595;DHT22;14238;49.496;8.154;2022-09-09T15:23:35;19.10;99.90
26595;DHT22;14238;49.496;8.154;2022-09-09T15:26:01;19.60;99.90
26595;DHT22;14238;49.496;8.154;2022-09-09T15:28:27;20.00;99.90
26595;DHT22;14238;49.496;8.154;2022-09-09T15:30:53;20.80;99.90
26595;DHT22;14238;49.496;8.154;2022-09-09T15:33:20;21.00;99.90
26595;DHT22;14238;49.496;8.154;2022-09-09T15:35:46;21.70;99.90
26595;DHT22;14238;49.496;8.154;2022-09-09T15:38:12;21.60;99.90
26595;DHT22;14238;49.496;8.154;2022-09-09T15:40:40;21.90;99.90
26595;DHT22;14238;49.496;8.154;2022-09-09T15:43:06;21.80;99.90
26595;DHT22;14238;49.496;8.154;2022-09-09T15:45:33;21.60;99.90
26595;DHT22;14238;49.496;8.154;2022-09-09T15:48:00;21.50;99.90
26595;DHT22;14238;49.496;8.154;2022-09-09T15:50:26;21.20;99.90
26595;DHT22;14238;49.496;8.154;2022-09-09T15:52:51;21.00;99.90
26595;DHT22;14238;49.496;8.154;2022-09-09T15:55:18;20.40;99.90
26595;DHT22;14238;49.496;8.154;2022-09-09T15:57:45;19.90;99.90
26595;DHT22;14238;49.496;8.154;2022-09-09T16:00:12;19.60;99.90
26595;DHT22;14238;49.496;8.154;2022-09-09T16:02:38;19.40;99.90
26595;DHT22;14238;49.496;8.154;2022-09-09T16:05:04;19.40;99.90
26595;DHT22;14238;49.496;8.154;2022-09-09T16:07:30;19.30;99.90
26595;DHT22;14238;49.496;8.154;2022-09-09T16:09:56;19.20;99.90
26595;DHT22;14238;49.496;8.154;2022-09-09T16:12:21;19.10;99.90
26595;DHT22;14238;49.496;8.154;2022-09-09T16:14:47;18.90;99.90
26595;DHT22;14238;49.496;8.154;2022-09-09T16:17:12;19.00;99.90
26595;DHT22;14238;49.496;8.154;2022-09-09T16:19:39;18.80;99.90
26595;DHT22;14238;49.496;8.154;2022-09-09T16:22:05;18.80;99.90
26595;DHT22;14238;49.496;8.154;2022-09-09T16:24:32;18.90;99.90
26595;DHT22;14238;49.496;8.154;2022-09-09T16:26:57;18.80;99.90
26595;DHT22;14238;49.496;8.154;2022-09-09T16:29:23;18.80;99.90
26595;DHT22;14238;49.496;8.154;2022-09-09T16:31:49;18.70;99.90
26595;DHT22;14238;49.496;8.154;2022-09-09T16:34:16;18.80;99.90
26595;DHT22;14238;49.496;8.154;2022-09-09T16:36:44;18.90;99.90
26595;DHT22;14238;49.496;8.154;2022-09-09T16:39:12;18.90;99.90
26595;DHT22;14238;49.496;8.154;2022-09-09T16:41:39;18.90;99.90
26595;DHT22;14238;49.496;8.154;2022-09-09T16:44:07;18.90;99.90
26595;DHT22;14238;49.496;8.154;2022-09-09T16:46:36;18.80;99.90
26595;DHT22;14238;49.496;8.154;2022-09-09T16:49:03;18.80;99.90
26595;DHT22;14238;49.496;8.154;2022-09-09T16:51:43;18.80;99.90
26595;DHT22;14238;49.496;8.154;2022-09-09T16:54:10;18.70;99.90
26595;DHT22;14238;49.496;8.154;2022-09-09T16:56:38;18.70;99.90
26595;DHT22;14238;49.496;8.154;2022-09-09T16:59:09;18.70;99.90
26595;DHT22;14238;49.496;8.154;2022-09-09T17:01:36;18.60;99.90
26595;DHT22;14238;49.496;8.154;2022-09-09T17:04:04;18.60;99.90
26595;DHT22;14238;49.496;8.154;2022-09-09T17:06:31;18.50;99.90
26595;DHT22;14238;49.496;8.154;2022-09-09T17:09:02;18.50;99.90
26595;DHT22;14238;49.496;8.154;2022-09-09T17:11:28;18.30;99.90
26595;DHT22;14238;49.496;8.154;2022-09-09T17:13:56;18.30;99.90
26595;DHT22;14238;49.496;8.154;2022-09-09T17:16:24;18.20;99.90
26595;DHT22;14238;49.496;8.154;2022-09-09T17:18:51;18.20;99.90
26595;DHT22;14238;49.496;8.154;2022-09-09T17:21:19;17.20;99.90
26595;DHT22;14238;49.496;8.154;2022-09-09T17:23:45;16.80;99.90
26595;DHT22;14238;49.496;8.154;2022-09-09T17:26:13;16.60;99.90